createdAt,value
2019-03-25T00:00:45.308Z,4.41
2019-03-25T00:05:51.408Z,5.43
2019-03-25T00:10:57.397Z,6.14
2019-03-25T00:16:03.421Z,4.85
2019-03-25T00:21:09.374Z,5.02
2019-03-25T00:26:15.421Z,5.14
2019-03-25T00:31:21.356Z,4.06
2019-03-25T00:36:27.336Z,6.41
2019-03-25T00:41:33.320Z,4.98
2019-03-25T00:46:39.306Z,4.66
2019-03-25T00:51:45.355Z,4.59
2019-03-25T00:56:51.448Z,5.24
2019-03-25T01:01:57.427Z,5.45
2019-03-25T01:07:03.463Z,4.84
2019-03-25T01:12:09.488Z,5.05
2019-03-25T01:17:15.503Z,4.15
2019-03-25T01:22:21.484Z,3.60
2019-03-25T01:27:27.464Z,4.84
2019-03-25T01:32:33.457Z,4.16
2019-03-25T01:37:39.426Z,4.80
2019-03-25T01:42:45.435Z,4.49
2019-03-25T01:47:51.541Z,4.94
2019-03-25T01:52:57.480Z,4.71
2019-03-25T01:58:03.491Z,4.80
2019-03-25T02:03:09.454Z,4.39
2019-03-25T02:08:15.441Z,4.59
2019-03-25T02:13:21.405Z,4.22
2019-03-25T02:18:27.396Z,4.53
2019-03-25T02:23:33.388Z,4.54
2019-03-25T02:28:39.358Z,6.00
2019-03-25T02:33:45.331Z,5.73
2019-03-25T02:38:51.520Z,5.87
2019-03-25T02:43:57.499Z,5.52
2019-03-25T02:49:03.467Z,5.23
2019-03-25T02:54:10.618Z,6.00
2019-03-25T02:59:16.824Z,5.97
2019-03-25T03:04:22.695Z,8.22
2019-03-25T03:09:28.665Z,8.15
2019-03-25T03:14:34.628Z,7.11
2019-03-25T03:19:40.578Z,7.49
2019-03-25T03:24:46.570Z,7.18
2019-03-25T03:29:52.531Z,6.58
2019-03-25T03:34:58.548Z,6.26
2019-03-25T03:40:04.512Z,5.51
2019-03-25T03:45:10.494Z,7.55
2019-03-25T03:50:16.439Z,7.90
2019-03-25T03:55:22.384Z,5.87
2019-03-25T04:00:28.349Z,7.73
2019-03-25T04:05:34.322Z,7.29
2019-03-25T04:10:40.301Z,6.76
2019-03-25T04:15:46.272Z,5.88
2019-03-25T04:20:52.264Z,7.42
2019-03-25T04:25:58.255Z,5.49
2019-03-25T04:31:04.503Z,5.72
2019-03-25T04:36:10.464Z,6.04
2019-03-25T04:41:16.458Z,6.55
2019-03-25T04:46:22.567Z,6.14
2019-03-25T04:51:28.513Z,8.48
2019-03-25T04:56:39.484Z,6.92
2019-03-25T05:01:39.979Z,7.09
2019-03-25T05:06:46.089Z,9.03
2019-03-25T05:11:52.730Z,8.83
2019-03-25T05:16:58.742Z,7.11
2019-03-25T05:22:04.712Z,8.17
2019-03-25T05:27:10.669Z,9.88
2019-03-25T05:32:16.623Z,7.98
2019-03-25T05:37:22.722Z,8.80
2019-03-25T05:42:28.682Z,8.48
2019-03-25T05:47:34.673Z,8.63
2019-03-25T05:52:40.650Z,6.97
2019-03-25T05:57:46.696Z,7.03
2019-03-25T06:02:52.855Z,7.81
2019-03-25T06:07:58.925Z,8.39
2019-03-25T06:13:04.889Z,6.33
2019-03-25T06:18:10.997Z,5.59
2019-03-25T06:23:16.973Z,5.68
2019-03-25T06:28:23.057Z,6.51
2019-03-25T06:33:29.005Z,6.30
2019-03-25T06:38:34.976Z,6.58
2019-03-25T06:43:40.934Z,7.25
2019-03-25T06:48:46.915Z,8.96
2019-03-25T06:53:52.882Z,7.83
2019-03-25T06:58:58.966Z,8.40
2019-03-25T07:04:04.972Z,7.47
2019-03-25T07:09:11.136Z,7.45
2019-03-25T07:14:17.147Z,9.30
2019-03-25T07:19:23.110Z,8.08
2019-03-25T07:24:29.061Z,8.07
2019-03-25T07:29:35.043Z,10.12
2019-03-25T07:34:41.340Z,8.67
2019-03-25T07:39:46.969Z,9.15
2019-03-25T07:44:52.911Z,10.31
2019-03-25T07:49:58.892Z,8.62
2019-03-25T07:55:04.876Z,8.38
2019-03-25T08:00:13.763Z,9.63
2019-03-25T08:05:16.441Z,9.02
2019-03-25T08:10:22.426Z,9.68
2019-03-25T08:15:28.445Z,9.59
2019-03-25T08:20:34.450Z,8.57
2019-03-25T08:25:40.407Z,9.96
2019-03-25T08:30:46.359Z,8.41
2019-03-25T08:35:52.320Z,9.16
2019-03-25T08:40:58.348Z,9.16
2019-03-25T08:46:04.326Z,9.01
2019-03-25T08:51:10.298Z,7.80
2019-03-25T08:56:16.298Z,8.82
2019-03-25T09:01:22.251Z,7.81
2019-03-25T09:06:28.229Z,7.45
2019-03-25T09:11:34.228Z,6.69
2019-03-25T09:16:40.195Z,8.21
2019-03-25T09:21:46.147Z,8.48
2019-03-25T09:26:52.114Z,8.00
2019-03-25T09:31:58.092Z,8.16
2019-03-25T09:37:04.057Z,9.57
2019-03-25T09:42:10.031Z,7.87
2019-03-25T09:47:16.002Z,9.43
2019-03-25T09:52:21.956Z,8.23
2019-03-25T09:57:27.943Z,4.90
2019-03-25T10:02:33.973Z,6.08
2019-03-25T10:07:39.959Z,3.54
2019-03-25T10:12:45.937Z,3.90
2019-03-25T10:17:51.902Z,5.19
2019-03-25T10:22:57.871Z,3.19
2019-03-25T10:28:03.863Z,3.75
2019-03-25T10:33:09.879Z,4.00
2019-03-25T10:38:19.713Z,5.05
2019-03-25T10:43:21.324Z,3.52
2019-03-25T10:48:27.282Z,2.25
2019-03-25T10:53:33.292Z,4.71
2019-03-25T10:58:39.256Z,4.45
2019-03-25T11:03:45.241Z,3.14
2019-03-25T11:08:51.261Z,3.39
2019-03-25T11:13:57.360Z,4.68
2019-03-25T11:19:03.336Z,2.60
2019-03-25T11:24:09.338Z,1.78
2019-03-25T11:29:15.334Z,1.95
2019-03-25T11:34:21.414Z,2.21
2019-03-25T11:39:27.453Z,2.51
2019-03-25T11:44:33.416Z,3.00
2019-03-25T11:49:39.395Z,2.32
2019-03-25T11:54:45.362Z,4.85
2019-03-25T11:59:51.339Z,2.94
2019-03-25T12:04:57.491Z,4.20
2019-03-25T12:10:03.505Z,3.40
2019-03-25T12:15:09.462Z,3.99
2019-03-25T12:20:15.468Z,2.06
2019-03-25T12:25:21.470Z,2.72
2019-03-25T12:30:27.461Z,2.03
2019-03-25T12:35:33.571Z,3.09
2019-03-25T12:40:39.568Z,2.57
2019-03-25T12:45:45.569Z,3.95
2019-03-25T12:50:51.654Z,5.46
2019-03-25T12:55:57.610Z,6.57
2019-03-25T13:01:03.580Z,4.93
2019-03-25T13:06:09.556Z,4.10
2019-03-25T13:11:15.562Z,6.57
2019-03-25T13:16:21.683Z,3.86
2019-03-25T13:21:27.823Z,5.39
2019-03-25T13:26:33.947Z,7.92
2019-03-25T13:31:39.950Z,9.22
2019-03-25T13:36:46.084Z,4.70
2019-03-25T13:41:52.142Z,4.61
2019-03-25T13:46:58.139Z,3.52
2019-03-25T13:52:04.142Z,6.36
2019-03-25T13:57:10.094Z,2.92
2019-03-25T14:02:16.141Z,3.29
2019-03-25T14:07:22.140Z,2.77
2019-03-25T14:12:28.154Z,6.89
2019-03-25T14:17:34.165Z,3.74
2019-03-25T14:22:40.154Z,4.37
2019-03-25T14:27:46.106Z,4.78
2019-03-25T14:32:52.087Z,4.83
2019-03-25T14:37:58.122Z,3.87
2019-03-25T14:43:04.280Z,3.19
2019-03-25T14:48:10.379Z,3.87
2019-03-25T14:53:16.325Z,2.18
2019-03-25T14:58:22.339Z,4.57
2019-03-25T15:03:28.314Z,5.34
2019-03-25T15:08:34.312Z,4.81
2019-03-25T15:13:40.310Z,4.75
2019-03-25T15:18:46.308Z,4.06
2019-03-25T15:23:52.434Z,4.18
2019-03-25T15:28:58.488Z,6.86
2019-03-25T15:34:04.533Z,7.01
2019-03-25T15:39:10.607Z,6.92
2019-03-25T15:44:16.665Z,8.62
2019-03-25T15:49:22.774Z,6.67
2019-03-25T15:54:28.763Z,6.68
2019-03-25T15:59:34.785Z,7.95
2019-03-25T16:04:40.912Z,9.98
2019-03-25T16:09:46.932Z,6.54
2019-03-25T16:14:52.939Z,5.47
2019-03-25T16:19:58.955Z,7.47
2019-03-25T16:25:05.088Z,5.20
2019-03-25T16:30:11.075Z,8.71
2019-03-25T16:35:17.052Z,11.34
2019-03-25T16:40:23.085Z,9.72
2019-03-25T16:45:29.147Z,11.62
2019-03-25T16:50:35.164Z,9.41
2019-03-25T16:55:41.237Z,10.58
2019-03-25T17:00:47.246Z,14.08
2019-03-25T17:05:53.253Z,8.18
2019-03-25T17:10:59.252Z,10.88
2019-03-25T17:16:05.532Z,7.03
2019-03-25T17:21:11.586Z,8.27
2019-03-25T17:26:17.809Z,7.14
2019-03-25T17:31:23.810Z,10.84
2019-03-25T17:36:29.859Z,12.64
2019-03-25T17:41:35.852Z,10.71
2019-03-25T17:46:41.889Z,12.09
2019-03-25T17:51:47.995Z,12.00
2019-03-25T17:56:54.079Z,11.31
2019-03-25T18:02:00.122Z,10.42
2019-03-25T18:07:06.151Z,8.49
2019-03-25T18:12:12.300Z,8.97
2019-03-25T18:17:18.296Z,6.27
2019-03-25T18:22:24.507Z,7.36
2019-03-25T18:27:30.532Z,5.54
2019-03-25T18:32:36.523Z,6.89
2019-03-25T18:37:42.532Z,4.13
2019-03-25T18:42:48.551Z,5.19
2019-03-25T18:47:54.590Z,4.81
2019-03-25T18:53:00.687Z,4.96
2019-03-25T18:58:06.669Z,4.63
2019-03-25T19:03:12.688Z,5.36
2019-03-25T19:08:18.706Z,4.24
2019-03-25T19:13:24.706Z,2.91
2019-03-25T19:18:30.716Z,5.23
2019-03-25T19:23:36.773Z,3.85
2019-03-25T19:28:42.742Z,3.46
2019-03-25T19:33:48.776Z,4.13
2019-03-25T19:38:54.838Z,4.00
2019-03-25T19:44:00.831Z,3.91
2019-03-25T19:49:06.923Z,4.91
2019-03-25T19:54:12.901Z,4.55
2019-03-25T19:59:18.998Z,5.40
2019-03-25T20:04:25.061Z,4.33
2019-03-25T20:09:31.061Z,4.75
2019-03-25T20:14:37.070Z,4.45
2019-03-25T20:19:43.098Z,6.94
2019-03-25T20:24:49.152Z,5.14
2019-03-25T20:29:55.246Z,4.92
2019-03-25T20:35:01.308Z,5.30
2019-03-25T20:40:07.354Z,4.90
2019-03-25T20:45:13.341Z,4.54
2019-03-25T20:50:19.539Z,5.18
2019-03-25T20:55:25.548Z,7.71
2019-03-25T21:00:31.543Z,6.10
2019-03-25T21:05:37.686Z,5.52
2019-03-25T21:10:43.662Z,4.98
2019-03-25T21:15:49.644Z,6.19
2019-03-25T21:20:55.766Z,6.16
2019-03-25T21:26:01.849Z,6.24
2019-03-25T21:31:07.854Z,6.44
2019-03-25T21:36:13.975Z,6.59
2019-03-25T21:41:20.044Z,6.14
2019-03-25T21:46:26.064Z,6.72
2019-03-25T21:51:32.026Z,5.82
2019-03-25T21:56:38.076Z,6.16
2019-03-25T22:01:44.094Z,5.93
2019-03-25T22:06:50.097Z,7.73
2019-03-25T22:11:56.111Z,6.42
2019-03-25T22:17:02.110Z,5.98
2019-03-25T22:22:08.106Z,7.30
2019-03-25T22:27:14.192Z,7.41
2019-03-25T22:32:20.290Z,6.66
2019-03-25T22:37:26.353Z,7.49
2019-03-25T22:42:32.327Z,7.35
2019-03-25T22:47:38.305Z,9.13
2019-03-25T22:52:44.318Z,7.21
2019-03-25T22:57:50.344Z,6.61
2019-03-25T23:02:56.312Z,6.24
2019-03-25T23:08:02.299Z,6.57
2019-03-25T23:13:08.375Z,7.46
2019-03-25T23:18:14.468Z,7.67
2019-03-25T23:23:20.451Z,8.60
2019-03-25T23:28:26.526Z,7.32
2019-03-25T23:33:32.527Z,7.94
2019-03-25T23:38:38.574Z,9.21
2019-03-25T23:43:44.589Z,8.69
2019-03-25T23:48:50.580Z,7.98
2019-03-25T23:53:56.632Z,7.13
2019-03-25T23:59:02.609Z,9.78
